メインページ
METAR-TAF:

METAR-TAF

空港 :

Worcester Regional Airport

ウースター, マサチューセッツ州, アメリカ合衆国

緯度: 42-16-14N, 経度: 071-52-23W, 海抜: 307m

現時点の気象観測

当レポートは45分前の05:54(UTC)に作成
北東の風 10kt、最大21ktの突風を伴う
気温 5°C
湿度 93%
気圧 1012 hPa
視程: 6.4km
高度500ftの千切れ雲あり
高度900ftの曇り
小雨, 靄

METAR: KORH 040554Z AUTO 05010G21KT 4SM -RA BR BKN005 OVC009 05/04 A2989 RMK AO2 SLP130 P0001 60015 T00500039 10061 20050 53010

時間: 02:39 (06:39 UTC)

予報

当レポートは1時間6分前の05:33(UTC)に作成
予報は04日の 06時(UTC)から 05日の 06時(UTC)まで有効
北/北東の風 12kt、最大24ktの突風を伴う
視程: 6.4km
高度500ftの曇り
小雨, 靄
04日の 1200時(UTC)から
北/北東の風 10kt
視程: 4.8km
高度800ftの曇り
04日の 1400時(UTC)から
北/北東の風 10kt
視程: 10km
高度800ftの曇り
04日の 2000時(UTC)から
北/北東の風 6kt
視程: 10km
高度1500ftの千切れ雲あり
04日の 2300時(UTC)から
東/北東の風 4kt
視程: 10km
高度2000ftの千切れ雲あり

TAF: KORH 040533Z 0406/0506 03012G24KT 4SM -RA BR OVC005 FM041200 03010KT 3SM BR OVC008 FM041400 03010KT P6SM OVC008 FM042000 03006KT P6SM BKN015 FM042300 07004KT P6SM BKN020

4,000以上の空港の気象観測と天気予報(METAR報とTAF報)

利用可能な観測所は地図上に黄色い丸と赤い丸で示す。

丸の上にカーソルを重ねると観測所名を参照できる。

次にクリックすると気象観測と天気予報を参照できる。

マップの切り替え:黒色「×」印の緑ボタンをクリックして拡大、「-」印の緑ボタンをクリックして縮小、緑色の三角印をクリックして隣りの地図に切り替え


METAR-TAF: